createdAt,value
2017-09-24T00:02:35.296Z,30.45
2017-09-24T00:05:37.625Z,29.50
2017-09-24T00:08:39.574Z,28.65
2017-09-24T00:11:41.907Z,28.42
2017-09-24T00:14:43.852Z,28.70
2017-09-24T00:17:46.225Z,29.30
2017-09-24T00:20:48.179Z,27.02
2017-09-24T00:23:50.546Z,27.67
2017-09-24T00:26:52.586Z,25.70
2017-09-24T00:29:54.947Z,23.17
2017-09-24T00:32:56.896Z,23.73
2017-09-24T00:35:59.264Z,24.12
2017-09-24T00:39:01.313Z,25.37
2017-09-24T00:42:03.668Z,23.35
2017-09-24T00:45:05.710Z,22.30
2017-09-24T00:48:08.054Z,22.77
2017-09-24T00:51:10.059Z,23.25
2017-09-24T00:54:12.367Z,23.20
2017-09-24T00:57:14.311Z,22.95
2017-09-24T01:00:16.874Z,23.00
2017-09-24T01:03:18.805Z,23.55
2017-09-24T01:06:21.279Z,22.40
2017-09-24T01:09:23.271Z,23.27
2017-09-24T01:12:25.596Z,23.25
2017-09-24T01:15:27.543Z,22.00
2017-09-24T01:18:29.926Z,22.33
2017-09-24T01:21:31.864Z,21.48
2017-09-24T01:24:34.210Z,23.62
2017-09-24T01:27:36.150Z,23.40
2017-09-24T01:30:38.501Z,22.10
2017-09-24T01:33:41.315Z,22.35
2017-09-24T01:36:43.651Z,23.73
2017-09-24T01:39:45.646Z,24.10
2017-09-24T01:42:48.764Z,25.65
2017-09-24T01:45:50.711Z,25.75
2017-09-24T01:48:53.096Z,26.05
2017-09-24T01:51:55.040Z,24.33
2017-09-24T01:54:57.379Z,22.15
2017-09-24T01:57:59.341Z,21.62
2017-09-24T02:01:01.878Z,20.92
2017-09-24T02:04:03.849Z,21.33
2017-09-24T02:07:06.201Z,19.12
2017-09-24T02:10:08.258Z,22.10
2017-09-24T02:13:10.599Z,20.45
2017-09-24T02:16:12.645Z,21.00
2017-09-24T02:19:15.002Z,21.08
2017-09-24T02:22:16.951Z,20.40
2017-09-24T02:25:19.314Z,20.15
2017-09-24T02:28:21.360Z,21.73
2017-09-24T02:31:23.712Z,19.75
2017-09-24T02:34:26.514Z,20.10
2017-09-24T02:37:28.888Z,20.00
2017-09-24T02:40:30.829Z,19.05
2017-09-24T02:43:33.129Z,20.23
2017-09-24T02:46:35.063Z,20.83
2017-09-24T02:49:38.175Z,18.95
2017-09-24T02:52:40.106Z,18.83
2017-09-24T02:55:42.513Z,20.12
2017-09-24T02:58:44.564Z,20.65
2017-09-24T03:01:46.989Z,19.45
2017-09-24T03:04:49.052Z,19.60
2017-09-24T03:07:51.584Z,22.37
2017-09-24T03:10:53.550Z,20.35
2017-09-24T03:13:55.911Z,21.20
2017-09-24T03:16:57.893Z,21.20
2017-09-24T03:20:00.316Z,22.65
2017-09-24T03:23:03.910Z,23.08
2017-09-24T03:26:06.248Z,24.17
2017-09-24T03:29:08.304Z,24.23
2017-09-24T03:32:10.665Z,23.27
2017-09-24T03:35:12.613Z,23.00
2017-09-24T03:38:14.978Z,22.08
2017-09-24T03:41:17.121Z,21.35
2017-09-24T03:44:19.483Z,21.25
2017-09-24T03:47:21.430Z,21.05
2017-09-24T03:50:23.778Z,23.48
2017-09-24T03:53:25.722Z,22.27
2017-09-24T03:56:27.988Z,21.20
2017-09-24T03:59:29.992Z,22.23
2017-09-24T04:02:33.189Z,24.00
2017-09-24T04:05:35.285Z,23.15
2017-09-24T04:08:37.663Z,27.90
2017-09-24T04:11:39.677Z,23.50
2017-09-24T04:14:41.923Z,23.42
2017-09-24T04:17:43.923Z,24.77
2017-09-24T04:20:46.230Z,25.75
2017-09-24T04:23:48.191Z,23.77
2017-09-24T04:26:50.540Z,27.80
2017-09-24T04:29:52.484Z,25.62
2017-09-24T04:32:54.891Z,27.10
2017-09-24T04:35:57.098Z,26.25
2017-09-24T04:38:59.471Z,26.27
2017-09-24T04:42:01.420Z,27.80
2017-09-24T04:45:03.761Z,26.77
2017-09-24T04:48:05.823Z,27.40
2017-09-24T04:51:08.185Z,26.40
2017-09-24T04:54:10.126Z,27.90
2017-09-24T04:57:12.481Z,27.08
2017-09-24T05:00:14.646Z,28.23
2017-09-24T05:03:17.002Z,33.38
2017-09-24T05:06:18.974Z,30.35
2017-09-24T05:09:21.303Z,33.65
2017-09-24T05:12:23.261Z,32.97
2017-09-24T05:15:25.557Z,34.47
2017-09-24T05:18:28.361Z,39.78
2017-09-24T05:21:30.655Z,43.50
2017-09-24T05:24:32.608Z,42.10
2017-09-24T05:27:34.940Z,37.53
2017-09-24T05:30:36.880Z,43.45
2017-09-24T05:33:39.281Z,41.60
2017-09-24T05:36:41.492Z,43.20
2017-09-24T05:39:43.888Z,38.33
2017-09-24T05:42:45.867Z,33.15
2017-09-24T05:45:48.253Z,37.05
2017-09-24T05:48:51.544Z,34.40
2017-09-24T05:51:53.987Z,35.25
2017-09-24T05:54:55.920Z,33.63
2017-09-24T05:57:58.301Z,33.75
2017-09-24T06:01:00.252Z,31.33
2017-09-24T06:04:02.615Z,37.47
2017-09-24T06:07:04.658Z,32.13
2017-09-24T06:10:07.016Z,33.15
2017-09-24T06:13:09.059Z,33.97
2017-09-24T06:16:12.241Z,31.80
2017-09-24T06:19:14.294Z,36.92
2017-09-24T06:22:16.659Z,40.53
2017-09-24T06:25:18.710Z,36.92
2017-09-24T06:28:21.003Z,35.83
2017-09-24T06:31:23.008Z,35.90
2017-09-24T06:34:25.357Z,35.80
2017-09-24T06:37:28.021Z,37.90
2017-09-24T06:40:30.304Z,37.42
2017-09-24T06:43:32.345Z,38.80
2017-09-24T06:46:34.680Z,35.17
2017-09-24T06:49:36.624Z,34.53
2017-09-24T06:52:39.008Z,32.08
2017-09-24T06:55:40.987Z,29.55
2017-09-24T06:58:43.487Z,28.52
2017-09-24T07:01:45.459Z,27.13
2017-09-24T07:04:47.819Z,26.73
2017-09-24T07:07:49.767Z,27.05
2017-09-24T07:10:52.121Z,27.33
2017-09-24T07:13:54.161Z,27.73
2017-09-24T07:16:56.524Z,27.58
2017-09-24T07:19:58.489Z,28.20
2017-09-24T07:23:01.030Z,28.00
2017-09-24T07:26:02.984Z,28.38
2017-09-24T07:29:05.342Z,28.95
2017-09-24T07:32:07.383Z,29.70
2017-09-24T07:35:09.780Z,30.88
2017-09-24T07:38:11.784Z,28.40
2017-09-24T07:41:14.264Z,29.70
2017-09-24T07:44:16.211Z,31.27
2017-09-24T07:47:19.583Z,30.70
2017-09-24T07:50:21.528Z,29.37
2017-09-24T07:53:24.620Z,31.37
2017-09-24T07:56:26.567Z,31.50
2017-09-24T07:59:28.917Z,29.77
2017-09-24T08:02:30.977Z,29.63
2017-09-24T08:05:33.315Z,28.98
2017-09-24T08:08:35.269Z,29.63
2017-09-24T08:11:37.735Z,29.83
2017-09-24T08:14:39.667Z,27.27
2017-09-24T08:17:42.027Z,28.20
2017-09-24T08:20:44.086Z,28.05
2017-09-24T08:23:46.460Z,27.67
2017-09-24T08:26:48.475Z,27.65
2017-09-24T08:29:50.874Z,26.50
2017-09-24T08:32:52.900Z,24.83
2017-09-24T08:35:55.264Z,24.63
2017-09-24T08:38:57.283Z,25.12
2017-09-24T08:42:00.392Z,21.52
2017-09-24T08:45:02.424Z,20.55
2017-09-24T08:48:04.779Z,18.27
2017-09-24T08:51:06.733Z,17.60
2017-09-24T08:54:09.011Z,17.55
2017-09-24T08:57:10.956Z,20.00
2017-09-24T09:00:13.304Z,18.30
2017-09-24T09:03:15.381Z,16.17
2017-09-24T09:06:17.771Z,16.15
2017-09-24T09:09:20.588Z,15.40
2017-09-24T09:12:22.960Z,13.90
2017-09-24T09:15:24.994Z,12.60
2017-09-24T09:18:27.356Z,13.65
2017-09-24T09:21:41.240Z,14.15
2017-09-24T09:24:44.328Z,12.93
2017-09-24T09:27:46.300Z,14.45
2017-09-24T09:30:48.654Z,14.38
2017-09-24T09:33:52.532Z,14.30
2017-09-24T09:36:54.908Z,16.70
2017-09-24T09:39:56.854Z,18.23
2017-09-24T09:42:59.209Z,16.48
2017-09-24T09:46:01.186Z,18.58
2017-09-24T09:49:03.515Z,17.48
2017-09-24T09:52:05.470Z,18.25
2017-09-24T09:55:07.971Z,17.60
2017-09-24T09:58:09.971Z,18.05
2017-09-24T10:01:12.335Z,19.15
2017-09-24T10:04:14.281Z,19.52
2017-09-24T10:07:28.816Z,19.30
2017-09-24T10:10:30.782Z,18.80
2017-09-24T10:13:33.142Z,18.55
2017-09-24T10:16:35.110Z,17.98
2017-09-24T10:19:37.430Z,22.10
2017-09-24T10:22:39.387Z,19.52
2017-09-24T10:25:41.717Z,20.05
2017-09-24T10:29:05.287Z,18.40
2017-09-24T10:32:07.649Z,18.42
2017-09-24T10:35:09.590Z,19.25
2017-09-24T10:38:11.945Z,18.35
2017-09-24T10:41:14.563Z,21.50
2017-09-24T10:44:16.839Z,18.20
2017-09-24T10:47:18.787Z,18.12
2017-09-24T10:50:21.852Z,21.30
2017-09-24T10:53:24.677Z,18.27
2017-09-24T10:56:27.017Z,17.80
2017-09-24T10:59:29.067Z,18.08
2017-09-24T11:02:31.425Z,17.20
2017-09-24T11:05:33.372Z,18.25
2017-09-24T11:08:35.759Z,18.52
2017-09-24T11:11:37.718Z,18.45
2017-09-24T11:14:40.859Z,20.35
2017-09-24T11:17:42.809Z,22.00
2017-09-24T11:20:45.814Z,19.55
2017-09-24T11:23:47.768Z,19.75
2017-09-24T11:26:50.906Z,19.05
2017-09-24T11:29:52.954Z,18.83
2017-09-24T11:32:55.470Z,17.67
2017-09-24T11:35:58.382Z,18.15
2017-09-24T11:39:00.699Z,17.20
2017-09-24T11:42:03.422Z,18.08
2017-09-24T11:45:05.718Z,21.35
2017-09-24T11:48:08.420Z,19.60
2017-09-24T11:51:10.784Z,15.95
2017-09-24T11:54:12.838Z,17.33
2017-09-24T11:57:15.196Z,16.23
2017-09-24T12:00:17.392Z,16.33
2017-09-24T12:03:20.576Z,17.08
2017-09-24T12:06:23.283Z,18.10
2017-09-24T12:09:25.655Z,14.50
2017-09-24T12:12:27.704Z,17.85
2017-09-24T12:15:30.059Z,14.00
2017-09-24T12:18:32.085Z,15.55
2017-09-24T12:21:34.463Z,14.73
2017-09-24T12:24:36.467Z,16.08
2017-09-24T12:27:39.601Z,14.48
2017-09-24T12:30:41.669Z,13.65
2017-09-24T12:33:43.993Z,13.27
2017-09-24T12:36:45.983Z,13.62
2017-09-24T12:39:48.296Z,14.50
2017-09-24T12:42:51.052Z,14.57
2017-09-24T12:45:53.439Z,15.48
2017-09-24T12:48:55.408Z,13.65
2017-09-24T12:51:57.737Z,14.85
2017-09-24T12:54:59.674Z,15.90
2017-09-24T12:58:02.022Z,14.18
2017-09-24T13:01:03.991Z,15.23
2017-09-24T13:04:06.297Z,14.48
2017-09-24T13:07:09.029Z,14.95
2017-09-24T13:10:11.567Z,14.63
2017-09-24T13:13:13.678Z,14.75
2017-09-24T13:16:16.791Z,15.65
2017-09-24T13:19:18.738Z,15.10
2017-09-24T13:22:21.300Z,14.57
2017-09-24T13:25:23.245Z,13.50
2017-09-24T13:28:25.611Z,14.07
2017-09-24T13:31:27.656Z,15.38
2017-09-24T13:34:30.034Z,14.68
2017-09-24T13:37:31.962Z,13.80
2017-09-24T13:40:34.317Z,14.18
2017-09-24T13:43:36.281Z,15.27
2017-09-24T13:46:38.622Z,14.90
2017-09-24T13:49:40.567Z,14.82
2017-09-24T13:52:42.852Z,14.65
2017-09-24T13:55:44.894Z,15.27
2017-09-24T13:58:47.240Z,17.40
2017-09-24T14:01:49.177Z,16.45
2017-09-24T14:04:51.572Z,18.23
2017-09-24T14:07:53.613Z,15.02
2017-09-24T14:10:55.964Z,17.05
2017-09-24T14:13:58.042Z,14.32
2017-09-24T14:17:05.740Z,15.77
2017-09-24T14:20:08.138Z,17.23
2017-09-24T14:23:10.513Z,19.65
2017-09-24T14:26:12.452Z,16.45
2017-09-24T14:29:14.808Z,15.73
2017-09-24T14:32:17.281Z,15.13
2017-09-24T14:35:19.633Z,14.75
2017-09-24T14:38:21.597Z,14.15
2017-09-24T14:41:23.956Z,15.82
2017-09-24T14:44:26.083Z,13.52
2017-09-24T14:47:28.569Z,14.05
2017-09-24T14:50:30.605Z,15.93
2017-09-24T14:53:33.068Z,14.55
2017-09-24T14:56:35.114Z,14.10
2017-09-24T14:59:37.491Z,17.60
2017-09-24T15:02:39.503Z,15.48
2017-09-24T15:05:41.883Z,15.13
2017-09-24T15:08:43.950Z,16.65
2017-09-24T15:11:46.283Z,22.52
2017-09-24T15:14:48.326Z,15.73
2017-09-24T15:17:50.680Z,15.55
2017-09-24T15:20:52.643Z,19.12
2017-09-24T15:23:54.995Z,15.75
2017-09-24T15:26:57.081Z,17.58
2017-09-24T15:29:59.353Z,15.77
2017-09-24T15:33:01.384Z,16.60
2017-09-24T15:36:03.868Z,16.67
2017-09-24T15:39:06.685Z,18.62
2017-09-24T15:42:09.049Z,15.05
2017-09-24T15:45:11.092Z,17.08
2017-09-24T15:48:14.028Z,15.95
2017-09-24T15:51:16.826Z,14.52
2017-09-24T15:54:19.191Z,15.32
2017-09-24T15:57:21.169Z,14.95
2017-09-24T16:00:23.515Z,14.82
2017-09-24T16:03:25.796Z,15.05
2017-09-24T16:06:28.261Z,14.52
2017-09-24T16:09:30.199Z,15.68
2017-09-24T16:12:33.249Z,18.40
2017-09-24T16:15:35.184Z,18.70
2017-09-24T16:18:37.560Z,17.23
2017-09-24T16:21:39.497Z,16.55
2017-09-24T16:24:42.646Z,21.58
2017-09-24T16:27:44.626Z,19.95
2017-09-24T16:30:46.964Z,16.02
2017-09-24T16:33:49.038Z,15.73
2017-09-24T16:36:51.383Z,16.52
2017-09-24T16:39:53.320Z,18.20
2017-09-24T16:42:55.689Z,16.80
2017-09-24T16:45:57.633Z,16.05
2017-09-24T16:49:01.342Z,21.87
2017-09-24T16:52:03.291Z,16.62
2017-09-24T16:55:05.633Z,18.37
2017-09-24T16:58:07.686Z,17.45
2017-09-24T17:01:10.031Z,18.62
2017-09-24T17:04:12.186Z,21.83
2017-09-24T17:07:14.628Z,19.95
2017-09-24T17:10:16.588Z,20.45
2017-09-24T17:13:19.793Z,20.40
2017-09-24T17:16:22.704Z,23.65
2017-09-24T17:19:25.898Z,24.67
2017-09-24T17:22:27.849Z,25.62
2017-09-24T17:25:30.337Z,21.00
2017-09-24T17:28:32.293Z,21.65
2017-09-24T17:31:34.641Z,27.67
2017-09-24T17:34:36.695Z,24.33
2017-09-24T17:37:39.044Z,23.38
2017-09-24T17:40:41.086Z,24.73
2017-09-24T17:43:43.641Z,28.10
2017-09-24T17:46:45.593Z,24.58
2017-09-24T17:49:47.945Z,25.27
2017-09-24T17:52:49.883Z,28.85
2017-09-24T17:55:52.375Z,28.12
2017-09-24T17:58:54.419Z,30.02
2017-09-24T18:01:56.780Z,37.50
2017-09-24T18:04:58.844Z,27.65
2017-09-24T18:08:01.283Z,31.33
2017-09-24T18:11:03.475Z,31.98
2017-09-24T18:14:06.090Z,30.37
2017-09-24T18:17:08.080Z,31.80
2017-09-24T18:20:10.417Z,31.70
2017-09-24T18:23:12.356Z,28.95
2017-09-24T18:26:14.811Z,27.00
2017-09-24T18:29:16.770Z,31.40
2017-09-24T18:32:19.132Z,29.25
2017-09-24T18:35:21.201Z,26.77
2017-09-24T18:38:23.631Z,26.92
2017-09-24T18:41:25.697Z,33.17
2017-09-24T18:44:28.039Z,26.25
2017-09-24T18:47:29.980Z,35.42
2017-09-24T18:50:32.352Z,28.33
2017-09-24T18:53:34.306Z,30.12
2017-09-24T18:56:36.668Z,28.73
2017-09-24T18:59:38.703Z,31.30
2017-09-24T19:02:41.066Z,35.90
2017-09-24T19:05:43.123Z,34.60
2017-09-24T19:08:45.474Z,29.85
2017-09-24T19:11:47.609Z,36.75
2017-09-24T19:14:49.996Z,35.55
2017-09-24T19:17:52.050Z,31.25
2017-09-24T19:20:55.194Z,34.65
2017-09-24T19:23:57.163Z,30.35
2017-09-24T19:26:59.713Z,31.98
2017-09-24T19:30:01.674Z,143.45
2017-09-24T19:33:04.019Z,46.17
2017-09-24T19:36:06.070Z,52.97
2017-09-24T19:39:08.427Z,37.28
2017-09-24T19:42:10.468Z,38.28
2017-09-24T19:45:12.820Z,37.40
2017-09-24T19:48:14.776Z,36.72
2017-09-24T19:51:17.192Z,32.28
2017-09-24T19:54:19.150Z,32.42
2017-09-24T19:57:22.261Z,38.58
2017-09-24T20:00:24.229Z,36.13
2017-09-24T20:03:26.569Z,39.22
2017-09-24T20:06:28.529Z,36.30
2017-09-24T20:09:30.879Z,29.70
2017-09-24T20:12:32.819Z,32.38
2017-09-24T20:15:35.111Z,39.72
2017-09-24T20:18:37.149Z,35.00
2017-09-24T20:21:39.484Z,39.00
2017-09-24T20:24:41.543Z,34.00
2017-09-24T20:27:43.890Z,29.65
2017-09-24T20:30:45.844Z,34.25
2017-09-24T20:33:48.302Z,33.85
2017-09-24T20:36:51.047Z,30.45
2017-09-24T20:39:53.524Z,30.77
2017-09-24T20:42:55.592Z,33.60
2017-09-24T20:45:58.014Z,41.10
2017-09-24T20:48:59.998Z,36.78
2017-09-24T20:52:02.448Z,38.00
2017-09-24T20:55:04.511Z,37.65
2017-09-24T20:58:06.845Z,36.13
2017-09-24T21:01:08.779Z,34.17
2017-09-24T21:04:11.137Z,29.17
2017-09-24T21:07:13.836Z,32.97
2017-09-24T21:10:16.965Z,28.00
2017-09-24T21:13:19.642Z,33.08
2017-09-24T21:16:21.967Z,39.40
2017-09-24T21:19:23.900Z,39.60
2017-09-24T21:22:26.264Z,36.80
2017-09-24T21:25:28.450Z,34.95
2017-09-24T21:28:31.001Z,34.47
2017-09-24T21:31:32.935Z,34.97
2017-09-24T21:34:35.304Z,30.37
2017-09-24T21:37:37.362Z,31.33
2017-09-24T21:40:39.712Z,37.08
2017-09-24T21:43:41.690Z,28.92
2017-09-24T21:46:44.216Z,31.05
2017-09-24T21:49:46.159Z,30.35
2017-09-24T21:52:48.553Z,32.35
2017-09-24T21:55:50.678Z,34.15
2017-09-24T21:58:53.139Z,42.45
2017-09-24T22:01:55.203Z,51.40
2017-09-24T22:04:57.565Z,49.83
2017-09-24T22:07:59.616Z,57.70
2017-09-24T22:11:01.965Z,51.95
2017-09-24T22:14:03.915Z,52.25
2017-09-24T22:17:06.269Z,46.40
2017-09-24T22:20:08.230Z,41.20
2017-09-24T22:23:10.577Z,42.85
2017-09-24T22:26:12.621Z,49.20
2017-09-24T22:29:14.975Z,45.63
2017-09-24T22:32:17.527Z,43.60
2017-09-24T22:35:19.901Z,40.33
2017-09-24T22:38:21.864Z,39.92
2017-09-24T22:41:24.227Z,46.22
2017-09-24T22:44:26.171Z,40.55
2017-09-24T22:47:28.510Z,38.65
2017-09-24T22:50:30.612Z,42.40
2017-09-24T22:53:33.739Z,36.97
2017-09-24T22:56:35.792Z,44.80
2017-09-24T22:59:38.146Z,44.10
2017-09-24T23:02:40.218Z,47.95
2017-09-24T23:05:42.587Z,50.25
2017-09-24T23:08:44.590Z,43.35
2017-09-24T23:11:46.896Z,53.72
2017-09-24T23:14:48.920Z,43.22
2017-09-24T23:17:51.769Z,53.58
2017-09-24T23:20:55.068Z,54.80
2017-09-24T23:23:57.380Z,49.53
2017-09-24T23:27:00.219Z,53.25
2017-09-24T23:30:02.541Z,48.50
2017-09-24T23:33:04.591Z,52.70
2017-09-24T23:36:06.888Z,51.03
2017-09-24T23:39:08.915Z,63.72
2017-09-24T23:42:11.262Z,51.60
2017-09-24T23:45:13.304Z,55.20
2017-09-24T23:48:15.608Z,53.65
2017-09-24T23:51:18.458Z,61.17
2017-09-24T23:54:20.778Z,65.95
2017-09-24T23:57:22.749Z,76.22
